sensor_id;sensor_type;location;lat;lon;timestamp;pressure;altitude;pressure_sealevel;temperature
65272;BMP280;51868;48.812;8.198;2023-05-13T00:00:00;100361.31;;;13.99
65272;BMP280;51868;48.812;8.198;2023-05-13T00:02:29;100359.16;;;13.97
65272;BMP280;51868;48.812;8.198;2023-05-13T00:04:57;100366.69;;;13.92
65272;BMP280;51868;48.812;8.198;2023-05-13T00:07:24;100371.47;;;13.90
65272;BMP280;51868;48.812;8.198;2023-05-13T00:09:53;100369.25;;;13.86
65272;BMP280;51868;48.812;8.198;2023-05-13T00:12:22;100369.06;;;13.80
65272;BMP280;51868;48.812;8.198;2023-05-13T00:14:50;100359.88;;;13.78
65272;BMP280;51868;48.812;8.198;2023-05-13T00:17:17;100361.94;;;13.77
65272;BMP280;51868;48.812;8.198;2023-05-13T00:19:46;100367.50;;;13.75
65272;BMP280;51868;48.812;8.198;2023-05-13T00:22:14;100372.25;;;13.72
65272;BMP280;51868;48.812;8.198;2023-05-13T00:24:42;100367.88;;;13.67
65272;BMP280;51868;48.812;8.198;2023-05-13T00:27:11;100369.88;;;13.65
65272;BMP280;51868;48.812;8.198;2023-05-13T00:29:39;100371.28;;;13.64
65272;BMP280;51868;48.812;8.198;2023-05-13T00:32:07;100367.59;;;13.59
65272;BMP280;51868;48.812;8.198;2023-05-13T00:34:34;100365.47;;;13.58
65272;BMP280;51868;48.812;8.198;2023-05-13T00:37:03;100368.88;;;13.56
65272;BMP280;51868;48.812;8.198;2023-05-13T00:39:32;100363.16;;;13.52
65272;BMP280;51868;48.812;8.198;2023-05-13T00:41:59;100358.16;;;13.48
65272;BMP280;51868;48.812;8.198;2023-05-13T00:44:31;100364.28;;;13.45
65272;BMP280;51868;48.812;8.198;2023-05-13T00:47:00;100364.84;;;13.41
65272;BMP280;51868;48.812;8.198;2023-05-13T00:49:28;100359.19;;;13.39
65272;BMP280;51868;48.812;8.198;2023-05-13T00:51:55;100361.97;;;13.39
65272;BMP280;51868;48.812;8.198;2023-05-13T00:54:23;100359.28;;;13.41
65272;BMP280;51868;48.812;8.198;2023-05-13T00:56:52;100368.25;;;13.40
65272;BMP280;51868;48.812;8.198;2023-05-13T00:59:23;100364.72;;;13.37
65272;BMP280;51868;48.812;8.198;2023-05-13T01:01:59;100374.44;;;13.36
65272;BMP280;51868;48.812;8.198;2023-05-13T01:04:35;100387.56;;;13.34
65272;BMP280;51868;48.812;8.198;2023-05-13T01:07:08;100385.41;;;13.32
65272;BMP280;51868;48.812;8.198;2023-05-13T01:09:47;100382.00;;;13.34
65272;BMP280;51868;48.812;8.198;2023-05-13T01:12:23;100386.81;;;13.33
65272;BMP280;51868;48.812;8.198;2023-05-13T01:14:58;100383.25;;;13.31
65272;BMP280;51868;48.812;8.198;2023-05-13T01:17:33;100388.13;;;13.30
65272;BMP280;51868;48.812;8.198;2023-05-13T01:20:03;100393.00;;;13.30
65272;BMP280;51868;48.812;8.198;2023-05-13T01:22:32;100391.53;;;13.29
65272;BMP280;51868;48.812;8.198;2023-05-13T01:25:00;100385.91;;;13.27
65272;BMP280;51868;48.812;8.198;2023-05-13T01:27:28;100391.41;;;13.24
65272;BMP280;51868;48.812;8.198;2023-05-13T01:29:56;100390.53;;;13.20
65272;BMP280;51868;48.812;8.198;2023-05-13T01:32:25;100398.13;;;13.19
65272;BMP280;51868;48.812;8.198;2023-05-13T01:34:53;100397.53;;;13.21
65272;BMP280;51868;48.812;8.198;2023-05-13T01:37:22;100396.81;;;13.20
65272;BMP280;51868;48.812;8.198;2023-05-13T01:39:51;100402.38;;;13.20
65272;BMP280;51868;48.812;8.198;2023-05-13T01:42:19;100402.38;;;13.20
65272;BMP280;51868;48.812;8.198;2023-05-13T01:44:47;100406.50;;;13.19
65272;BMP280;51868;48.812;8.198;2023-05-13T01:47:14;100412.75;;;13.18
65272;BMP280;51868;48.812;8.198;2023-05-13T01:49:42;100410.59;;;13.16
65272;BMP280;51868;48.812;8.198;2023-05-13T01:52:10;100402.22;;;13.16
65272;BMP280;51868;48.812;8.198;2023-05-13T01:54:38;100405.63;;;13.15
65272;BMP280;51868;48.812;8.198;2023-05-13T01:57:07;100402.84;;;13.15
65272;BMP280;51868;48.812;8.198;2023-05-13T01:59:35;100407.56;;;13.10
65272;BMP280;51868;48.812;8.198;2023-05-13T02:02:03;100402.63;;;13.09
65272;BMP280;51868;48.812;8.198;2023-05-13T02:04:31;100399.84;;;13.09
65272;BMP280;51868;48.812;8.198;2023-05-13T02:06:59;100396.97;;;13.07
65272;BMP280;51868;48.812;8.198;2023-05-13T02:09:26;100398.28;;;13.06
65272;BMP280;51868;48.812;8.198;2023-05-13T02:11:54;100403.88;;;13.06
65272;BMP280;51868;48.812;8.198;2023-05-13T02:14:23;100401.75;;;13.04
65272;BMP280;51868;48.812;8.198;2023-05-13T02:16:51;100397.53;;;13.03
65272;BMP280;51868;48.812;8.198;2023-05-13T02:19:19;100396.91;;;13.05
65272;BMP280;51868;48.812;8.198;2023-05-13T02:21:47;100394.13;;;13.05
65272;BMP280;51868;48.812;8.198;2023-05-13T02:24:15;100394.81;;;13.05
65272;BMP280;51868;48.812;8.198;2023-05-13T02:26:43;100395.47;;;13.04
65272;BMP280;51868;48.812;8.198;2023-05-13T02:29:11;100394.19;;;13.07
65272;BMP280;51868;48.812;8.198;2023-05-13T02:31:40;100399.03;;;13.06
65272;BMP280;51868;48.812;8.198;2023-05-13T02:34:08;100396.91;;;13.05
65272;BMP280;51868;48.812;8.198;2023-05-13T02:36:36;100398.88;;;13.02
65272;BMP280;51868;48.812;8.198;2023-05-13T02:39:04;100403.66;;;12.99
65272;BMP280;51868;48.812;8.198;2023-05-13T02:41:34;100394.50;;;12.97
65272;BMP280;51868;48.812;8.198;2023-05-13T02:44:02;100390.84;;;12.92
65272;BMP280;51868;48.812;8.198;2023-05-13T02:46:30;100392.09;;;12.89
65272;BMP280;51868;48.812;8.198;2023-05-13T02:48:59;100390.59;;;12.86
65272;BMP280;51868;48.812;8.198;2023-05-13T02:51:27;100395.38;;;12.84
65272;BMP280;51868;48.812;8.198;2023-05-13T02:53:55;100397.44;;;12.83
65272;BMP280;51868;48.812;8.198;2023-05-13T02:56:22;100393.13;;;12.80
65272;BMP280;51868;48.812;8.198;2023-05-13T02:58:50;100393.69;;;12.76
65272;BMP280;51868;48.812;8.198;2023-05-13T03:01:18;100399.88;;;12.75
65272;BMP280;51868;48.812;8.198;2023-05-13T03:03:46;100396.94;;;12.71
65272;BMP280;51868;48.812;8.198;2023-05-13T03:06:15;100395.50;;;12.70
65272;BMP280;51868;48.812;8.198;2023-05-13T03:08:43;100398.91;;;12.68
65272;BMP280;51868;48.812;8.198;2023-05-13T03:11:11;100391.28;;;12.69
65272;BMP280;51868;48.812;8.198;2023-05-13T03:13:38;100390.47;;;12.66
65272;BMP280;51868;48.812;8.198;2023-05-13T03:16:06;100400.81;;;12.64
65272;BMP280;51868;48.812;8.198;2023-05-13T03:18:34;100400.63;;;12.60
65272;BMP280;51868;48.812;8.198;2023-05-13T03:21:03;100406.06;;;12.56
65272;BMP280;51868;48.812;8.198;2023-05-13T03:23:32;100400.31;;;12.51
65272;BMP280;51868;48.812;8.198;2023-05-13T03:26:00;100406.53;;;12.50
65272;BMP280;51868;48.812;8.198;2023-05-13T03:28:28;100411.81;;;12.44
65272;BMP280;51868;48.812;8.198;2023-05-13T03:30:56;100405.47;;;12.41
65272;BMP280;51868;48.812;8.198;2023-05-13T03:33:24;100403.91;;;12.38
65272;BMP280;51868;48.812;8.198;2023-05-13T03:35:52;100407.34;;;12.37
65272;BMP280;51868;48.812;8.198;2023-05-13T03:38:19;100409.25;;;12.32
65272;BMP280;51868;48.812;8.198;2023-05-13T03:40:48;100410.41;;;12.27
65272;BMP280;51868;48.812;8.198;2023-05-13T03:43:16;100410.88;;;12.21
65272;BMP280;51868;48.812;8.198;2023-05-13T03:45:44;100407.91;;;12.17
65272;BMP280;51868;48.812;8.198;2023-05-13T03:48:14;100418.16;;;12.13
65272;BMP280;51868;48.812;8.198;2023-05-13T03:50:42;100420.81;;;12.11
65272;BMP280;51868;48.812;8.198;2023-05-13T03:53:10;100417.94;;;12.09
65272;BMP280;51868;48.812;8.198;2023-05-13T03:55:38;100417.94;;;12.09
65272;BMP280;51868;48.812;8.198;2023-05-13T03:58:14;100423.50;;;12.09
65272;BMP280;51868;48.812;8.198;2023-05-13T04:00:43;100430.34;;;12.05
65272;BMP280;51868;48.812;8.198;2023-05-13T04:03:24;100426.03;;;12.02
65272;BMP280;51868;48.812;8.198;2023-05-13T04:05:52;100424.69;;;12.03
65272;BMP280;51868;48.812;8.198;2023-05-13T04:08:19;100423.25;;;12.02
65272;BMP280;51868;48.812;8.198;2023-05-13T04:10:47;100431.59;;;12.02
65272;BMP280;51868;48.812;8.198;2023-05-13T04:13:16;100426.59;;;11.99
65272;BMP280;51868;48.812;8.198;2023-05-13T04:15:44;100434.00;;;11.94
65272;BMP280;51868;48.812;8.198;2023-05-13T04:18:12;100443.06;;;11.95
65272;BMP280;51868;48.812;8.198;2023-05-13T04:20:39;100433.41;;;11.96
65272;BMP280;51868;48.812;8.198;2023-05-13T04:23:07;100437.00;;;11.98
65272;BMP280;51868;48.812;8.198;2023-05-13T04:25:35;100443.97;;;11.99
65272;BMP280;51868;48.812;8.198;2023-05-13T04:28:04;100445.50;;;12.02
65272;BMP280;51868;48.812;8.198;2023-05-13T04:30:33;100444.16;;;12.03
65272;BMP280;51868;48.812;8.198;2023-05-13T04:33:01;100444.25;;;12.05
65272;BMP280;51868;48.812;8.198;2023-05-13T04:35:31;100450.63;;;12.08
65272;BMP280;51868;48.812;8.198;2023-05-13T04:37:58;100457.72;;;12.11
65272;BMP280;51868;48.812;8.198;2023-05-13T04:40:26;100443.09;;;12.11
65272;BMP280;51868;48.812;8.198;2023-05-13T04:42:54;100451.59;;;12.15
65272;BMP280;51868;48.812;8.198;2023-05-13T04:45:22;100446.84;;;12.17
65272;BMP280;51868;48.812;8.198;2023-05-13T04:47:51;100454.69;;;12.21
65272;BMP280;51868;48.812;8.198;2023-05-13T04:50:23;100443.63;;;12.23
65272;BMP280;51868;48.812;8.198;2023-05-13T04:52:52;100456.38;;;12.28
65272;BMP280;51868;48.812;8.198;2023-05-13T04:55:21;100457.38;;;12.35
65272;BMP280;51868;48.812;8.198;2023-05-13T04:57:52;100459.06;;;12.42
65272;BMP280;51868;48.812;8.198;2023-05-13T05:00:20;100445.88;;;12.42
65272;BMP280;51868;48.812;8.198;2023-05-13T05:02:48;100448.09;;;12.46
65272;BMP280;51868;48.812;8.198;2023-05-13T05:05:17;100449.63;;;12.49
65272;BMP280;51868;48.812;8.198;2023-05-13T05:07:45;100447.63;;;12.51
65272;BMP280;51868;48.812;8.198;2023-05-13T05:10:13;100453.47;;;12.58
65272;BMP280;51868;48.812;8.198;2023-05-13T05:12:41;100457.38;;;12.68
65272;BMP280;51868;48.812;8.198;2023-05-13T05:15:10;100457.75;;;12.76
65272;BMP280;51868;48.812;8.198;2023-05-13T05:17:41;100454.47;;;12.82
65272;BMP280;51868;48.812;8.198;2023-05-13T05:30:50;100466.28;;;12.98
65272;BMP280;51868;48.812;8.198;2023-05-13T05:33:44;100477.13;;;12.90
65272;BMP280;51868;48.812;8.198;2023-05-13T05:37:57;100481.06;;;12.85
65272;BMP280;51868;48.812;8.198;2023-05-13T05:40:29;100481.53;;;12.80
65272;BMP280;51868;48.812;8.198;2023-05-13T08:28:37;100528.66;;;15.86
65272;BMP280;51868;48.812;8.198;2023-05-13T08:31:07;100526.47;;;15.82
65272;BMP280;51868;48.812;8.198;2023-05-13T08:33:37;100522.09;;;15.77
65272;BMP280;51868;48.812;8.198;2023-05-13T08:36:08;100519.16;;;15.71
65272;BMP280;51868;48.812;8.198;2023-05-13T08:38:37;100524.63;;;15.67
65272;BMP280;51868;48.812;8.198;2023-05-13T08:41:05;100524.63;;;15.67
65272;BMP280;51868;48.812;8.198;2023-05-13T08:43:52;100526.00;;;15.68
65272;BMP280;51868;48.812;8.198;2023-05-13T08:46:28;100517.63;;;15.68
65272;BMP280;51868;48.812;8.198;2023-05-13T08:49:05;100527.53;;;15.71
65272;BMP280;51868;48.812;8.198;2023-05-13T08:51:36;100520.41;;;15.68
65272;BMP280;51868;48.812;8.198;2023-05-13T08:54:08;100522.47;;;15.65
65272;BMP280;51868;48.812;8.198;2023-05-13T08:56:39;100526.00;;;15.66
65272;BMP280;51868;48.812;8.198;2023-05-13T08:59:24;100523.13;;;15.64
65272;BMP280;51868;48.812;8.198;2023-05-13T09:02:07;100522.38;;;15.61
65272;BMP280;51868;48.812;8.198;2023-05-13T09:04:38;100514.66;;;15.62
65272;BMP280;51868;48.812;8.198;2023-05-13T09:07:12;100518.88;;;15.63
65272;BMP280;51868;48.812;8.198;2023-05-13T09:09:40;100521.88;;;15.69
65272;BMP280;51868;48.812;8.198;2023-05-13T09:12:08;100531.81;;;15.74
65272;BMP280;51868;48.812;8.198;2023-05-13T09:14:37;100531.88;;;15.76
65272;BMP280;51868;48.812;8.198;2023-05-13T09:17:07;100533.22;;;15.75
65272;BMP280;51868;48.812;8.198;2023-05-13T09:19:35;100526.28;;;15.76
65272;BMP280;51868;48.812;8.198;2023-05-13T09:22:03;100533.19;;;15.73
65272;BMP280;51868;48.812;8.198;2023-05-13T09:24:31;100529.56;;;15.68
65272;BMP280;51868;48.812;8.198;2023-05-13T09:27:01;100532.34;;;15.68
65272;BMP280;51868;48.812;8.198;2023-05-13T09:29:31;100531.59;;;15.68
65272;BMP280;51868;48.812;8.198;2023-05-13T09:32:08;100531.59;;;15.68
65272;BMP280;51868;48.812;8.198;2023-05-13T09:34:46;100531.09;;;15.74
65272;BMP280;51868;48.812;8.198;2023-05-13T09:37:16;100524.19;;;15.77
65272;BMP280;51868;48.812;8.198;2023-05-13T09:39:50;100532.00;;;15.80
65272;BMP280;51868;48.812;8.198;2023-05-13T09:42:23;100525.22;;;15.87
65272;BMP280;51868;48.812;8.198;2023-05-13T09:44:55;100521.88;;;15.93
65272;BMP280;51868;48.812;8.198;2023-05-13T10:52:13;100530.75;;;17.20
65272;BMP280;51868;48.812;8.198;2023-05-13T10:54:40;100534.31;;;17.22
65272;BMP280;51868;48.812;8.198;2023-05-13T10:57:08;100534.44;;;17.26
65272;BMP280;51868;48.812;8.198;2023-05-13T11:00:10;100535.22;;;17.31
65272;BMP280;51868;48.812;8.198;2023-05-13T11:02:43;100527.56;;;17.33
65272;BMP280;51868;48.812;8.198;2023-05-13T11:05:18;100523.47;;;17.38
65272;BMP280;51868;48.812;8.198;2023-05-13T11:07:55;100531.25;;;17.42
65272;BMP280;51868;48.812;8.198;2023-05-13T11:10:24;100533.38;;;17.41
65272;BMP280;51868;48.812;8.198;2023-05-13T11:13:21;100539.00;;;17.41
65272;BMP280;51868;48.812;8.198;2023-05-13T11:15:52;100528.59;;;17.48
65272;BMP280;51868;48.812;8.198;2023-05-13T11:18:28;100525.28;;;17.56
65272;BMP280;51868;48.812;8.198;2023-05-13T11:21:01;100521.13;;;17.59
65272;BMP280;51868;48.812;8.198;2023-05-13T11:23:33;100524.00;;;17.63
65272;BMP280;51868;48.812;8.198;2023-05-13T11:26:17;100512.88;;;17.67
65272;BMP280;51868;48.812;8.198;2023-05-13T11:28:55;100515.78;;;17.71
65272;BMP280;51868;48.812;8.198;2023-05-13T11:31:27;100520.00;;;17.72
65272;BMP280;51868;48.812;8.198;2023-05-13T11:34:06;100524.28;;;17.75
65272;BMP280;51868;48.812;8.198;2023-05-13T11:36:36;100530.69;;;17.80
65272;BMP280;51868;48.812;8.198;2023-05-13T11:39:11;100522.34;;;17.84
65272;BMP280;51868;48.812;8.198;2023-05-13T11:41:41;100525.16;;;17.84
65272;BMP280;51868;48.812;8.198;2023-05-13T11:44:13;100524.44;;;17.83
65272;BMP280;51868;48.812;8.198;2023-05-13T11:46:51;100520.19;;;17.82
65272;BMP280;51868;48.812;8.198;2023-05-13T11:49:30;100521.53;;;17.79
65272;BMP280;51868;48.812;8.198;2023-05-13T11:51:59;100521.59;;;17.81
65272;BMP280;51868;48.812;8.198;2023-05-13T11:54:29;100521.69;;;17.85
65272;BMP280;51868;48.812;8.198;2023-05-13T11:57:00;100516.16;;;17.89
65272;BMP280;51868;48.812;8.198;2023-05-13T11:59:28;100512.75;;;17.95
65272;BMP280;51868;48.812;8.198;2023-05-13T12:02:10;100518.53;;;18.03
65272;BMP280;51868;48.812;8.198;2023-05-13T12:04:38;100521.38;;;18.07
65272;BMP280;51868;48.812;8.198;2023-05-13T12:07:10;100525.03;;;18.14
65272;BMP280;51868;48.812;8.198;2023-05-13T12:09:39;100518.13;;;18.21
65272;BMP280;51868;48.812;8.198;2023-05-13T12:12:07;100516.13;;;18.26
65272;BMP280;51868;48.812;8.198;2023-05-13T12:14:36;100515.53;;;18.31
65272;BMP280;51868;48.812;8.198;2023-05-13T12:17:04;100517.03;;;18.36
65272;BMP280;51868;48.812;8.198;2023-05-13T12:22:54;100525.63;;;18.47
65272;BMP280;51868;48.812;8.198;2023-05-13T12:25:47;100517.97;;;18.51
65272;BMP280;51868;48.812;8.198;2023-05-13T12:28:20;100509.69;;;18.57
65272;BMP280;51868;48.812;8.198;2023-05-13T12:30:50;100514.66;;;18.61
65272;BMP280;51868;48.812;8.198;2023-05-13T12:33:20;100509.78;;;18.63
65272;BMP280;51868;48.812;8.198;2023-05-13T12:38:54;100516.22;;;18.70
65272;BMP280;51868;48.812;8.198;2023-05-13T12:41:28;100520.44;;;18.71
65272;BMP280;51868;48.812;8.198;2023-05-13T12:43:57;100506.38;;;18.71
65272;BMP280;51868;48.812;8.198;2023-05-13T12:46:26;100516.22;;;18.70
65272;BMP280;51868;48.812;8.198;2023-05-13T12:48:56;100511.22;;;18.66
65272;BMP280;51868;48.812;8.198;2023-05-13T12:51:27;100508.38;;;18.64
65272;BMP280;51868;48.812;8.198;2023-05-13T12:54:02;100506.31;;;18.67
65272;BMP280;51868;48.812;8.198;2023-05-13T12:56:33;100503.53;;;18.69
65272;BMP280;51868;48.812;8.198;2023-05-13T12:59:00;100502.16;;;18.70
65272;BMP280;51868;48.812;8.198;2023-05-13T13:01:30;100503.53;;;18.69
65272;BMP280;51868;48.812;8.198;2023-05-13T13:04:03;100502.88;;;18.71
65272;BMP280;51868;48.812;8.198;2023-05-13T13:06:36;100508.44;;;18.68
65272;BMP280;51868;48.812;8.198;2023-05-13T13:09:08;100504.91;;;18.66
65272;BMP280;51868;48.812;8.198;2023-05-13T13:11:38;100501.34;;;18.63
65272;BMP280;51868;48.812;8.198;2023-05-13T13:14:06;100501.31;;;18.61
65272;BMP280;51868;48.812;8.198;2023-05-13T13:16:36;100508.34;;;18.62
65272;BMP280;51868;48.812;8.198;2023-05-13T13:19:06;100497.09;;;18.62
65272;BMP280;51868;48.812;8.198;2023-05-13T13:21:37;100497.84;;;18.65
65272;BMP280;51868;48.812;8.198;2023-05-13T13:24:14;100492.25;;;18.67
65272;BMP280;51868;48.812;8.198;2023-05-13T13:26:44;100484.59;;;18.72
65272;BMP280;51868;48.812;8.198;2023-05-13T13:29:15;100484.00;;;18.77
65272;BMP280;51868;48.812;8.198;2023-05-13T13:31:42;100482.63;;;18.80
65272;BMP280;51868;48.812;8.198;2023-05-13T13:34:11;100481.97;;;18.82
65272;BMP280;51868;48.812;8.198;2023-05-13T13:36:38;100469.38;;;18.87
65272;BMP280;51868;48.812;8.198;2023-05-13T13:39:06;100478.66;;;18.96
65272;BMP280;51868;48.812;8.198;2023-05-13T13:41:34;100467.50;;;19.04
65272;BMP280;51868;48.812;8.198;2023-05-13T13:44:03;100461.25;;;19.07
65272;BMP280;51868;48.812;8.198;2023-05-13T13:46:31;100466.25;;;19.13
65272;BMP280;51868;48.812;8.198;2023-05-13T13:48:59;100457.81;;;19.15
65272;BMP280;51868;48.812;8.198;2023-05-13T13:51:35;100460.63;;;19.15
65272;BMP280;51868;48.812;8.198;2023-05-13T13:54:03;100460.63;;;19.15
65272;BMP280;51868;48.812;8.198;2023-05-13T13:56:31;100469.03;;;19.13
65272;BMP280;51868;48.812;8.198;2023-05-13T13:58:59;100466.91;;;19.09
65272;BMP280;51868;48.812;8.198;2023-05-13T14:01:28;100464.00;;;19.03
65272;BMP280;51868;48.812;8.198;2023-05-13T14:04:09;100462.41;;;18.92
65272;BMP280;51868;48.812;8.198;2023-05-13T14:06:37;100471.44;;;18.84
65272;BMP280;51868;48.812;8.198;2023-05-13T14:09:05;100472.72;;;18.75
65272;BMP280;51868;48.812;8.198;2023-05-13T14:11:32;100464.22;;;18.71
65272;BMP280;51868;48.812;8.198;2023-05-13T14:14:00;100464.25;;;18.73
65272;BMP280;51868;48.812;8.198;2023-05-13T14:16:29;100462.91;;;18.78
65272;BMP280;51868;48.812;8.198;2023-05-13T14:18:57;100471.53;;;18.88
65272;BMP280;51868;48.812;8.198;2023-05-13T14:21:25;100453.38;;;18.98
65272;BMP280;51868;48.812;8.198;2023-05-13T14:23:53;100451.41;;;19.10
65272;BMP280;51868;48.812;8.198;2023-05-13T14:26:20;100432.56;;;19.19
65272;BMP280;51868;48.812;8.198;2023-05-13T14:28:48;100439.03;;;19.28
65272;BMP280;51868;48.812;8.198;2023-05-13T14:31:16;100435.53;;;19.33
65272;BMP280;51868;48.812;8.198;2023-05-13T14:33:45;100434.19;;;19.38
65272;BMP280;51868;48.812;8.198;2023-05-13T14:36:13;100439.81;;;19.38
65272;BMP280;51868;48.812;8.198;2023-05-13T14:38:41;100437.06;;;19.40
65272;BMP280;51868;48.812;8.198;2023-05-13T14:41:09;100427.22;;;19.41
65272;BMP280;51868;48.812;8.198;2023-05-13T14:43:37;100430.03;;;19.41
65272;BMP280;51868;48.812;8.198;2023-05-13T14:46:05;100427.91;;;19.40
65272;BMP280;51868;48.812;8.198;2023-05-13T14:48:33;100424.34;;;19.37
65272;BMP280;51868;48.812;8.198;2023-05-13T14:51:02;100421.47;;;19.33
65272;BMP280;51868;48.812;8.198;2023-05-13T14:53:30;100420.03;;;19.30
65272;BMP280;51868;48.812;8.198;2023-05-13T14:55:58;100420.72;;;19.29
65272;BMP280;51868;48.812;8.198;2023-05-13T14:58:25;100410.16;;;19.29
65272;BMP280;51868;48.812;8.198;2023-05-13T15:00:53;100410.91;;;19.30
65272;BMP280;51868;48.812;8.198;2023-05-13T15:03:21;100393.28;;;19.29
65272;BMP280;51868;48.812;8.198;2023-05-13T15:05:49;100396.13;;;19.31
65272;BMP280;51868;48.812;8.198;2023-05-13T15:08:19;100394.00;;;19.28
65272;BMP280;51868;48.812;8.198;2023-05-13T15:10:47;100403.06;;;19.22
65272;BMP280;51868;48.812;8.198;2023-05-13T15:13:15;100403.66;;;19.12
65272;BMP280;51868;48.812;8.198;2023-05-13T15:15:44;100394.38;;;19.04
65272;BMP280;51868;48.812;8.198;2023-05-13T15:18:12;100401.38;;;19.01
65272;BMP280;51868;48.812;8.198;2023-05-13T15:20:39;100394.31;;;18.98
65272;BMP280;51868;48.812;8.198;2023-05-13T15:23:07;100401.28;;;18.94
65272;BMP280;51868;48.812;8.198;2023-05-13T15:25:37;100407.59;;;18.93
65272;BMP280;51868;48.812;8.198;2023-05-13T15:28:07;100404.03;;;18.90
65272;BMP280;51868;48.812;8.198;2023-05-13T15:30:35;100399.78;;;18.87
65272;BMP280;51868;48.812;8.198;2023-05-13T15:33:04;100409.63;;;18.86
65272;BMP280;51868;48.812;8.198;2023-05-13T15:35:33;100399.78;;;18.87
65272;BMP280;51868;48.812;8.198;2023-05-13T15:38:01;100395.59;;;18.88
65272;BMP280;51868;48.812;8.198;2023-05-13T15:40:29;100396.25;;;18.85
65272;BMP280;51868;48.812;8.198;2023-05-13T15:42:58;100392.66;;;18.80
65272;BMP280;51868;48.812;8.198;2023-05-13T15:45:26;100388.47;;;18.81
65272;BMP280;51868;48.812;8.198;2023-05-13T15:47:57;100387.75;;;18.83
65272;BMP280;51868;48.812;8.198;2023-05-13T15:50:28;100390.53;;;18.79
65272;BMP280;51868;48.812;8.198;2023-05-13T15:52:56;100388.31;;;18.71
65272;BMP280;51868;48.812;8.198;2023-05-13T15:55:26;100396.66;;;18.65
65272;BMP280;51868;48.812;8.198;2023-05-13T15:57:54;100397.25;;;18.57
65272;BMP280;51868;48.812;8.198;2023-05-13T16:00:23;100391.56;;;18.53
65272;BMP280;51868;48.812;8.198;2023-05-13T16:02:53;100391.53;;;18.51
65272;BMP280;51868;48.812;8.198;2023-05-13T16:05:35;100390.16;;;18.54
65272;BMP280;51868;48.812;8.198;2023-05-13T16:08:04;100390.94;;;18.57
65272;BMP280;51868;48.812;8.198;2023-05-13T16:10:31;100386.09;;;18.63
65272;BMP280;51868;48.812;8.198;2023-05-13T16:13:04;100389.00;;;18.67
65272;BMP280;51868;48.812;8.198;2023-05-13T16:15:33;100384.81;;;18.71
65272;BMP280;51868;48.812;8.198;2023-05-13T16:18:01;100394.00;;;18.75
65272;BMP280;51868;48.812;8.198;2023-05-13T16:20:35;100394.00;;;18.75
65272;BMP280;51868;48.812;8.198;2023-05-13T16:23:03;100393.97;;;18.73
65272;BMP280;51868;48.812;8.198;2023-05-13T16:28:54;100400.91;;;18.66
65272;BMP280;51868;48.812;8.198;2023-05-13T16:31:24;100399.41;;;18.61
65272;BMP280;51868;48.812;8.198;2023-05-13T16:33:55;100398.66;;;18.56
65272;BMP280;51868;48.812;8.198;2023-05-13T16:36:22;100397.91;;;18.54
65272;BMP280;51868;48.812;8.198;2023-05-13T16:38:52;100402.06;;;18.51
65272;BMP280;51868;48.812;8.198;2023-05-13T16:41:19;100402.03;;;18.49
65272;BMP280;51868;48.812;8.198;2023-05-13T16:43:48;100403.44;;;18.48
65272;BMP280;51868;48.812;8.198;2023-05-13T16:46:15;100398.50;;;18.48
65272;BMP280;51868;48.812;8.198;2023-05-13T16:48:45;100402.00;;;18.47
65272;BMP280;51868;48.812;8.198;2023-05-13T16:51:13;100396.34;;;18.45
65272;BMP280;51868;48.812;8.198;2023-05-13T16:53:40;100399.16;;;18.45
65272;BMP280;51868;48.812;8.198;2023-05-13T16:56:08;100394.88;;;18.41
65272;BMP280;51868;48.812;8.198;2023-05-13T16:58:36;100392.06;;;18.41
65272;BMP280;51868;48.812;8.198;2023-05-13T17:01:07;100391.34;;;18.39
65272;BMP280;51868;48.812;8.198;2023-05-13T17:03:35;100390.59;;;18.36
65272;BMP280;51868;48.812;8.198;2023-05-13T17:06:04;100395.50;;;18.36
65272;BMP280;51868;48.812;8.198;2023-05-13T17:08:33;100394.06;;;18.35
65272;BMP280;51868;48.812;8.198;2023-05-13T17:11:01;100394.72;;;18.31
65272;BMP280;51868;48.812;8.198;2023-05-13T17:13:28;100397.47;;;18.27
65272;BMP280;51868;48.812;8.198;2023-05-13T17:15:56;100399.50;;;18.23
65272;BMP280;51868;48.812;8.198;2023-05-13T17:18:24;100398.78;;;18.22
65272;BMP280;51868;48.812;8.198;2023-05-13T17:20:52;100403.75;;;18.26
65272;BMP280;51868;48.812;8.198;2023-05-13T17:23:21;100393.25;;;18.28
65272;BMP280;51868;48.812;8.198;2023-05-13T17:25:49;100391.91;;;18.29
65272;BMP280;51868;48.812;8.198;2023-05-13T17:28:17;100390.47;;;18.30
65272;BMP280;51868;48.812;8.198;2023-05-13T17:30:45;100387.66;;;18.30
65272;BMP280;51868;48.812;8.198;2023-05-13T17:33:13;100393.28;;;18.30
65272;BMP280;51868;48.812;8.198;2023-05-13T17:35:41;100379.91;;;18.27
65272;BMP280;51868;48.812;8.198;2023-05-13T17:38:08;100386.88;;;18.24
65272;BMP280;51868;48.812;8.198;2023-05-13T17:40:38;100388.22;;;18.21
65272;BMP280;51868;48.812;8.198;2023-05-13T17:43:06;100393.81;;;18.18
65272;BMP280;51868;48.812;8.198;2023-05-13T17:45:34;100395.91;;;18.18
65272;BMP280;51868;48.812;8.198;2023-05-13T17:48:02;100399.38;;;18.14
65272;BMP280;51868;48.812;8.198;2023-05-13T17:50:30;100391.56;;;18.11
65272;BMP280;51868;48.812;8.198;2023-05-13T17:52:58;100401.38;;;18.08
65272;BMP280;51868;48.812;8.198;2023-05-13T17:55:26;100404.16;;;18.06
65272;BMP280;51868;48.812;8.198;2023-05-13T17:57:56;100400.59;;;18.03
65272;BMP280;51868;48.812;8.198;2023-05-13T18:00:26;100397.03;;;18.01
65272;BMP280;51868;48.812;8.198;2023-05-13T18:02:53;100400.50;;;17.99
65272;BMP280;51868;48.812;8.198;2023-05-13T18:05:21;100394.91;;;17.99
65272;BMP280;51868;48.812;8.198;2023-05-13T18:07:49;100408.19;;;17.97
65272;BMP280;51868;48.812;8.198;2023-05-13T18:10:17;100403.94;;;17.96
65272;BMP280;51868;48.812;8.198;2023-05-13T18:12:45;100397.59;;;17.93
65272;BMP280;51868;48.812;8.198;2023-05-13T18:15:14;100396.88;;;17.92
65272;BMP280;51868;48.812;8.198;2023-05-13T18:17:42;100406.66;;;17.89
65272;BMP280;51868;48.812;8.198;2023-05-13T18:20:11;100403.72;;;17.83
65272;BMP280;51868;48.812;8.198;2023-05-13T18:22:39;100395.19;;;17.77